createdAt,value
2023-05-07T00:01:31.332Z,62.06
2023-05-07T00:04:02.652Z,61.92
2023-05-07T00:06:34.858Z,61.80
2023-05-07T00:09:07.207Z,61.87
2023-05-07T00:11:38.617Z,61.88
2023-05-07T00:14:10.648Z,61.94
2023-05-07T00:16:41.947Z,62.09
2023-05-07T00:19:13.575Z,62.15
2023-05-07T00:21:44.954Z,62.11
2023-05-07T00:24:16.928Z,62.17
2023-05-07T00:26:48.092Z,62.11
2023-05-07T00:29:19.608Z,62.12
2023-05-07T00:31:55.188Z,62.01
2023-05-07T00:34:27.350Z,61.96
2023-05-07T00:36:59.152Z,61.99
2023-05-07T00:39:30.522Z,61.90
2023-05-07T00:42:03.784Z,62.06
2023-05-07T00:44:35.445Z,61.92
2023-05-07T00:47:08.403Z,61.80
2023-05-07T00:49:43.662Z,61.88
2023-05-07T00:52:16.690Z,61.62
2023-05-07T00:54:48.663Z,61.60
2023-05-07T00:57:21.276Z,61.59
2023-05-07T00:59:53.931Z,61.54
2023-05-07T01:02:25.478Z,61.54
2023-05-07T01:04:57.361Z,61.59
2023-05-07T01:07:30.038Z,61.56
2023-05-07T01:10:02.973Z,61.63
2023-05-07T01:12:35.771Z,61.55
2023-05-07T01:15:10.628Z,61.61
2023-05-07T01:17:45.027Z,61.51
2023-05-07T01:20:25.530Z,61.57
2023-05-07T01:22:59.472Z,61.58
2023-05-07T01:25:31.611Z,61.62
2023-05-07T01:28:04.657Z,61.55
2023-05-07T01:30:40.903Z,61.45
2023-05-07T01:33:17.166Z,61.51
2023-05-07T01:35:53.801Z,61.40
2023-05-07T01:38:26.095Z,61.44
2023-05-07T01:40:58.182Z,61.43
2023-05-07T01:43:31.108Z,61.34
2023-05-07T01:46:04.196Z,61.15
2023-05-07T01:48:37.345Z,61.25
2023-05-07T01:51:11.129Z,61.36
2023-05-07T01:53:44.501Z,61.46
2023-05-07T01:56:16.376Z,61.37
2023-05-07T01:58:48.523Z,61.42
2023-05-07T02:01:20.839Z,61.25
2023-05-07T02:03:53.333Z,61.19
2023-05-07T02:06:27.510Z,61.24
2023-05-07T02:09:03.931Z,61.28
2023-05-07T02:11:35.430Z,61.24
2023-05-07T02:14:07.145Z,61.29
2023-05-07T02:16:40.607Z,61.22
2023-05-07T02:19:12.495Z,61.15
2023-05-07T02:21:44.140Z,61.19
2023-05-07T02:24:16.125Z,61.10
2023-05-07T02:26:47.556Z,61.19
2023-05-07T02:29:18.915Z,61.04
2023-05-07T02:31:52.026Z,61.22
2023-05-07T02:34:24.362Z,61.15
2023-05-07T02:36:56.906Z,61.14
2023-05-07T02:39:29.355Z,61.35
2023-05-07T02:42:03.437Z,61.24
2023-05-07T02:44:36.726Z,61.21
2023-05-07T02:47:09.969Z,61.03
2023-05-07T02:49:42.091Z,61.10
2023-05-07T02:52:14.172Z,61.22
2023-05-07T02:54:46.137Z,61.36
2023-05-07T02:57:17.955Z,61.41
2023-05-07T02:59:49.433Z,61.38
2023-05-07T03:02:22.112Z,61.55
2023-05-07T03:04:53.763Z,61.53
2023-05-07T03:07:28.359Z,61.51
2023-05-07T03:10:01.126Z,61.62
2023-05-07T03:12:33.180Z,61.59
2023-05-07T03:15:05.502Z,61.61
2023-05-07T03:17:37.381Z,61.53
2023-05-07T03:20:12.264Z,61.55
2023-05-07T03:22:44.168Z,61.50
2023-05-07T03:25:17.056Z,61.56
2023-05-07T03:27:48.690Z,61.71
2023-05-07T03:30:22.017Z,61.76
2023-05-07T03:32:54.021Z,61.95
2023-05-07T03:35:25.567Z,61.77
2023-05-07T03:37:57.635Z,61.86
2023-05-07T03:40:29.819Z,61.82
2023-05-07T03:43:02.391Z,61.80
2023-05-07T03:45:34.544Z,61.87
2023-05-07T03:48:15.070Z,61.63
2023-05-07T03:50:49.177Z,61.54
2023-05-07T03:53:21.142Z,61.54
2023-05-07T03:55:53.025Z,61.59
2023-05-07T03:58:25.165Z,61.57
2023-05-07T04:00:57.664Z,61.60
2023-05-07T04:03:32.616Z,61.54
2023-05-07T04:06:04.259Z,61.74
2023-05-07T04:08:36.105Z,61.57
2023-05-07T04:11:08.330Z,61.73
2023-05-07T04:13:41.039Z,61.70
2023-05-07T04:16:14.079Z,61.68
2023-05-07T04:18:45.644Z,61.75
2023-05-07T04:21:22.523Z,61.80
2023-05-07T04:23:54.875Z,61.90
2023-05-07T04:26:26.718Z,61.86
2023-05-07T04:28:58.871Z,61.83
2023-05-07T04:31:32.007Z,61.90
2023-05-07T04:34:04.392Z,61.95
2023-05-07T04:36:38.052Z,61.90
2023-05-07T04:39:12.598Z,61.90
2023-05-07T04:41:46.483Z,62.01
2023-05-07T04:44:18.758Z,61.89
2023-05-07T04:46:50.194Z,61.80
2023-05-07T04:49:21.743Z,61.74
2023-05-07T04:51:54.732Z,61.72
2023-05-07T04:54:27.721Z,61.61
2023-05-07T04:56:59.372Z,61.70
2023-05-07T04:59:31.245Z,61.65
2023-05-07T05:02:02.855Z,61.47
2023-05-07T05:04:35.152Z,61.48
2023-05-07T05:07:07.230Z,61.51
2023-05-07T05:09:38.681Z,61.59
2023-05-07T05:12:10.595Z,61.41
2023-05-07T05:14:42.893Z,61.47
2023-05-07T05:17:14.784Z,61.39
2023-05-07T05:19:46.108Z,61.33
2023-05-07T05:22:17.576Z,61.34
2023-05-07T05:24:49.014Z,61.35
2023-05-07T05:27:20.658Z,61.31
2023-05-07T05:29:52.138Z,61.31
2023-05-07T05:32:23.558Z,61.29
2023-05-07T05:34:56.733Z,61.28
2023-05-07T05:37:29.036Z,61.16
2023-05-07T05:40:01.092Z,61.19
2023-05-07T05:42:33.579Z,61.23
2023-05-07T05:45:05.722Z,61.16
2023-05-07T05:47:38.078Z,61.11
2023-05-07T05:50:11.656Z,61.08
2023-05-07T05:52:43.321Z,60.95
2023-05-07T05:55:15.402Z,61.15
2023-05-07T05:57:46.690Z,61.33
2023-05-07T06:00:23.371Z,61.12
2023-05-07T06:03:01.155Z,60.68
2023-05-07T06:05:33.226Z,60.43
2023-05-07T06:08:04.982Z,60.77
2023-05-07T06:10:38.368Z,60.98
2023-05-07T06:13:10.615Z,60.94
2023-05-07T06:15:42.442Z,60.84
2023-05-07T06:18:15.899Z,60.85
2023-05-07T06:20:47.162Z,60.90
2023-05-07T06:23:25.520Z,60.96
2023-05-07T06:25:56.929Z,60.81
2023-05-07T06:28:36.822Z,60.71
2023-05-07T06:31:21.664Z,60.89
2023-05-07T06:34:06.822Z,60.83
2023-05-07T06:36:41.273Z,60.79
2023-05-07T06:39:38.758Z,60.78
2023-05-07T06:42:10.041Z,60.46
2023-05-07T06:44:45.636Z,60.52
2023-05-07T06:47:18.837Z,60.41
2023-05-07T06:49:53.326Z,60.44
2023-05-07T06:52:26.196Z,60.65
2023-05-07T06:54:58.372Z,60.49
2023-05-07T06:57:30.342Z,60.59
2023-05-07T07:00:01.678Z,60.85
2023-05-07T07:02:35.949Z,60.85
2023-05-07T07:05:11.943Z,60.63
2023-05-07T07:07:44.583Z,60.78
2023-05-07T07:10:17.053Z,60.88
2023-05-07T07:12:49.679Z,60.73
2023-05-07T07:15:22.958Z,60.80
2023-05-07T07:17:54.897Z,60.56
2023-05-07T07:20:28.075Z,60.51
2023-05-07T07:23:00.765Z,60.41
2023-05-07T07:25:32.371Z,60.11
2023-05-07T07:28:04.031Z,60.14
2023-05-07T07:30:35.907Z,59.88
2023-05-07T07:33:07.392Z,60.01
2023-05-07T07:35:40.696Z,60.34
2023-05-07T07:38:12.299Z,60.91
2023-05-07T07:40:45.034Z,60.99
2023-05-07T07:43:16.361Z,61.06
2023-05-07T07:45:47.972Z,60.77
2023-05-07T07:48:19.217Z,60.78
2023-05-07T07:50:53.679Z,60.86
2023-05-07T07:53:25.622Z,60.69
2023-05-07T07:55:59.381Z,60.66
2023-05-07T07:58:32.919Z,60.60
2023-05-07T08:01:05.816Z,60.37
2023-05-07T08:03:37.344Z,60.26
2023-05-07T08:06:09.130Z,60.20
2023-05-07T08:08:40.763Z,60.29
2023-05-07T08:11:12.487Z,60.03
2023-05-07T08:13:43.940Z,60.23
2023-05-07T08:16:16.060Z,60.19
2023-05-07T08:18:47.687Z,60.02
2023-05-07T08:21:19.707Z,59.94
2023-05-07T08:23:50.933Z,59.73
2023-05-07T08:26:22.708Z,59.59
2023-05-07T08:28:54.235Z,59.63
2023-05-07T08:31:26.333Z,59.54
2023-05-07T08:33:57.671Z,59.40
2023-05-07T08:36:29.712Z,59.29
2023-05-07T08:39:01.944Z,59.15
2023-05-07T08:41:33.541Z,59.17
2023-05-07T08:44:08.700Z,59.47
2023-05-07T08:46:42.823Z,59.48
2023-05-07T08:49:14.625Z,59.18
2023-05-07T08:51:46.868Z,59.17
2023-05-07T08:54:21.256Z,59.54
2023-05-07T08:56:53.297Z,59.84
2023-05-07T08:59:25.440Z,59.85
2023-05-07T09:01:57.151Z,60.14
2023-05-07T09:04:28.729Z,60.01
2023-05-07T09:07:06.473Z,60.34
2023-05-07T09:09:40.369Z,60.73
2023-05-07T09:12:12.389Z,61.16
2023-05-07T09:14:44.014Z,61.18
2023-05-07T09:17:15.555Z,60.87
2023-05-07T09:19:47.990Z,61.33
2023-05-07T09:22:19.741Z,61.59
2023-05-07T09:25:00.177Z,61.90
2023-05-07T09:27:35.545Z,61.98
2023-05-07T09:30:12.969Z,61.99
2023-05-07T09:32:45.142Z,62.04
2023-05-07T09:35:22.704Z,62.05
2023-05-07T09:37:58.666Z,61.99
2023-05-07T09:40:32.385Z,61.88
2023-05-07T09:43:17.292Z,62.19
2023-05-07T09:45:58.020Z,62.18
2023-05-07T09:48:32.051Z,62.01
2023-05-07T09:51:08.840Z,62.19
2023-05-07T09:53:42.639Z,62.28
2023-05-07T09:56:16.267Z,62.13
2023-05-07T09:58:49.332Z,62.13
2023-05-07T10:01:23.213Z,62.07
2023-05-07T10:03:57.229Z,61.82
2023-05-07T10:06:29.898Z,61.44
2023-05-07T10:09:01.516Z,61.40
2023-05-07T10:11:34.208Z,61.26
2023-05-07T10:14:07.686Z,60.96
2023-05-07T10:16:40.625Z,60.84
2023-05-07T10:19:16.776Z,60.85
2023-05-07T10:21:57.951Z,60.63
2023-05-07T10:24:35.088Z,60.38
2023-05-07T10:27:12.343Z,60.22
2023-05-07T10:29:56.141Z,60.04
2023-05-07T10:32:41.141Z,59.60
2023-05-07T10:35:20.057Z,59.62
2023-05-07T10:37:53.696Z,59.28
2023-05-07T10:40:26.196Z,58.95
2023-05-07T10:43:02.917Z,58.80
2023-05-07T10:45:37.749Z,58.71
2023-05-07T10:51:23.232Z,58.28
2023-05-07T10:54:22.708Z,58.42
2023-05-07T10:57:20.606Z,58.11
2023-05-07T10:59:53.125Z,57.93
2023-05-07T11:03:02.732Z,58.31
2023-05-07T11:05:40.478Z,57.73
2023-05-07T11:08:25.974Z,57.35
2023-05-07T11:11:03.679Z,57.71
2023-05-07T11:13:49.073Z,57.64
2023-05-07T11:16:45.883Z,57.22
2023-05-07T11:19:52.014Z,57.33
2023-05-07T11:22:43.940Z,56.88
2023-05-07T11:25:27.442Z,56.83
2023-05-07T11:28:11.466Z,56.78
2023-05-07T11:30:48.136Z,56.54
2023-05-07T11:33:23.008Z,56.61
2023-05-07T11:35:57.484Z,56.94
2023-05-07T11:38:32.957Z,56.92
2023-05-07T11:41:06.058Z,57.31
2023-05-07T11:43:38.256Z,57.25
2023-05-07T11:46:15.547Z,57.27
2023-05-07T11:48:47.468Z,57.19
2023-05-07T11:51:23.255Z,57.66
2023-05-07T11:53:55.215Z,58.20
2023-05-07T11:56:27.011Z,58.29
2023-05-07T11:58:58.478Z,58.12
2023-05-07T12:01:29.856Z,58.20
2023-05-07T12:04:05.283Z,58.26
2023-05-07T12:06:40.959Z,58.34
2023-05-07T12:09:12.955Z,58.28
2023-05-07T12:11:48.422Z,58.32
2023-05-07T12:14:20.013Z,58.40
2023-05-07T12:16:51.931Z,58.42
2023-05-07T12:19:23.193Z,58.60
2023-05-07T12:21:54.645Z,58.44
2023-05-07T12:24:26.626Z,58.76
2023-05-07T12:26:58.354Z,58.92
2023-05-07T12:29:29.858Z,59.07
2023-05-07T12:32:01.335Z,59.22
2023-05-07T12:34:33.853Z,59.37
2023-05-07T12:37:07.986Z,59.32
2023-05-07T12:39:39.732Z,59.23
2023-05-07T12:42:16.888Z,59.06
2023-05-07T12:44:49.706Z,58.86
2023-05-07T12:47:20.854Z,58.49
2023-05-07T12:49:52.725Z,58.27
2023-05-07T12:52:24.314Z,58.32
2023-05-07T12:54:55.902Z,58.24
2023-05-07T12:57:27.651Z,58.04
2023-05-07T13:00:01.819Z,57.92
2023-05-07T13:02:40.354Z,57.65
2023-05-07T13:05:12.925Z,57.69
2023-05-07T13:07:54.696Z,57.67
2023-05-07T13:10:26.815Z,57.90
2023-05-07T13:12:58.308Z,57.62
2023-05-07T13:15:29.823Z,57.40
2023-05-07T13:18:01.383Z,57.27
2023-05-07T13:20:33.261Z,57.28
2023-05-07T13:23:06.054Z,56.96
2023-05-07T13:25:39.116Z,57.19
2023-05-07T13:28:11.578Z,56.96
2023-05-07T13:30:43.339Z,57.14
2023-05-07T13:33:15.578Z,57.44
2023-05-07T13:35:47.474Z,57.61
2023-05-07T13:38:19.254Z,57.66
2023-05-07T13:40:50.391Z,57.74
2023-05-07T13:43:21.948Z,57.66
2023-05-07T13:45:54.166Z,58.04
2023-05-07T13:48:25.634Z,58.28
2023-05-07T13:50:57.098Z,58.28
2023-05-07T13:53:28.472Z,58.37
2023-05-07T13:55:59.722Z,58.44
2023-05-07T13:58:30.961Z,58.34
2023-05-07T14:01:02.782Z,58.28
2023-05-07T14:03:35.324Z,58.13
2023-05-07T14:06:07.679Z,58.06
2023-05-07T14:08:39.629Z,58.04
2023-05-07T14:11:11.062Z,57.90
2023-05-07T14:13:42.462Z,57.70
2023-05-07T14:16:13.568Z,57.82
2023-05-07T14:18:44.908Z,57.73
2023-05-07T14:21:16.580Z,57.77
2023-05-07T14:23:48.341Z,57.84
2023-05-07T14:26:20.389Z,57.95
2023-05-07T14:28:51.865Z,57.55
2023-05-07T14:31:23.667Z,57.67
2023-05-07T14:33:56.298Z,58.02
2023-05-07T14:36:28.721Z,57.95
2023-05-07T14:39:01.040Z,58.21
2023-05-07T14:41:34.320Z,58.35
2023-05-07T14:44:05.891Z,58.34
2023-05-07T14:46:38.095Z,58.29
2023-05-07T14:49:17.607Z,58.10
2023-05-07T14:51:49.965Z,57.98
2023-05-07T14:54:21.399Z,57.88
2023-05-07T14:56:53.268Z,58.09
2023-05-07T14:59:26.239Z,58.09
2023-05-07T15:01:58.102Z,57.92
2023-05-07T15:04:29.496Z,58.01
2023-05-07T15:07:01.253Z,57.77
2023-05-07T15:09:33.826Z,57.70
2023-05-07T15:12:05.264Z,57.24
2023-05-07T15:14:36.849Z,57.00
2023-05-07T15:17:08.467Z,57.14
2023-05-07T15:19:39.854Z,57.01
2023-05-07T15:22:11.565Z,57.21
2023-05-07T15:24:45.060Z,57.08
2023-05-07T15:27:17.888Z,56.65
2023-05-07T15:29:49.319Z,56.18
2023-05-07T15:32:20.930Z,56.52
2023-05-07T15:34:52.803Z,56.68
2023-05-07T15:37:24.088Z,56.76
2023-05-07T15:39:55.317Z,56.75
2023-05-07T15:42:26.806Z,56.75
2023-05-07T15:44:58.538Z,57.04
2023-05-07T15:47:30.264Z,57.27
2023-05-07T15:50:02.275Z,57.32
2023-05-07T15:52:33.820Z,57.47
2023-05-07T15:55:06.562Z,57.62
2023-05-07T15:57:38.172Z,57.65
2023-05-07T16:00:12.663Z,57.56
2023-05-07T16:02:44.515Z,57.54
2023-05-07T16:05:16.051Z,57.58
2023-05-07T16:07:48.599Z,57.61
2023-05-07T16:10:19.984Z,57.65
2023-05-07T16:12:51.503Z,57.72
2023-05-07T16:15:23.412Z,57.68
2023-05-07T16:17:57.970Z,57.72
2023-05-07T16:20:31.183Z,57.70
2023-05-07T16:23:02.958Z,57.63
2023-05-07T16:25:34.255Z,57.77
2023-05-07T16:28:06.677Z,57.72
2023-05-07T16:30:38.600Z,57.74
2023-05-07T16:33:10.737Z,57.71
2023-05-07T16:35:45.057Z,57.55
2023-05-07T16:38:16.620Z,57.62
2023-05-07T16:40:48.155Z,57.58
2023-05-07T16:43:19.548Z,57.71
2023-05-07T16:45:51.138Z,57.63
2023-05-07T16:48:23.183Z,57.74
2023-05-07T16:50:54.724Z,57.62
2023-05-07T16:53:26.361Z,57.56
2023-05-07T16:55:57.875Z,57.51
2023-05-07T16:58:29.469Z,57.28
2023-05-07T17:01:00.719Z,57.39
2023-05-07T17:03:33.263Z,57.49
2023-05-07T17:06:04.878Z,57.59
2023-05-07T17:08:36.184Z,57.62
2023-05-07T17:11:07.607Z,57.58
2023-05-07T17:13:38.962Z,57.76
2023-05-07T17:16:10.599Z,57.82
2023-05-07T17:18:42.070Z,57.95
2023-05-07T17:21:13.899Z,57.96
2023-05-07T17:23:45.230Z,58.14
2023-05-07T17:26:16.834Z,58.28
2023-05-07T17:28:48.157Z,58.27
2023-05-07T17:31:19.441Z,58.43
2023-05-07T17:33:50.774Z,58.48
2023-05-07T17:36:22.162Z,58.50
2023-05-07T17:38:53.710Z,58.66
2023-05-07T17:41:24.996Z,58.83
2023-05-07T17:43:56.476Z,58.92
2023-05-07T17:46:27.670Z,59.04
2023-05-07T17:48:59.010Z,58.85
2023-05-07T17:51:39.048Z,59.01
2023-05-07T17:54:17.912Z,59.24
2023-05-07T17:56:49.294Z,59.26
2023-05-07T17:59:20.547Z,59.10
2023-05-07T18:01:51.792Z,59.26
2023-05-07T18:04:24.729Z,59.37
2023-05-07T18:06:57.427Z,59.34
2023-05-07T18:09:28.881Z,59.33
2023-05-07T18:12:00.314Z,59.28
2023-05-07T18:14:31.896Z,59.25
2023-05-07T18:17:03.161Z,59.23
2023-05-07T18:19:34.776Z,59.21
2023-05-07T18:22:06.355Z,59.46
2023-05-07T18:24:38.498Z,59.45
2023-05-07T18:27:10.160Z,59.48
2023-05-07T18:29:41.869Z,59.55
2023-05-07T18:32:13.813Z,59.58
2023-05-07T18:34:46.017Z,59.60
2023-05-07T18:37:17.968Z,59.58
2023-05-07T18:39:50.264Z,59.69
2023-05-07T18:42:21.562Z,59.66
2023-05-07T18:44:52.934Z,59.68
2023-05-07T18:47:25.147Z,59.72
2023-05-07T18:49:56.420Z,59.58
2023-05-07T18:52:29.232Z,59.78
2023-05-07T18:55:00.590Z,59.66
2023-05-07T18:57:32.292Z,59.73
2023-05-07T19:00:03.614Z,59.65
2023-05-07T19:02:34.950Z,59.57
2023-05-07T19:05:07.759Z,59.59
2023-05-07T19:07:38.948Z,59.60
2023-05-07T19:10:12.125Z,59.63
2023-05-07T19:12:43.491Z,59.83
2023-05-07T19:15:15.421Z,59.39
2023-05-07T19:17:46.909Z,59.37
2023-05-07T19:20:18.388Z,59.20
2023-05-07T19:22:49.840Z,59.02
2023-05-07T19:25:21.390Z,58.60
2023-05-07T19:27:52.662Z,58.34
2023-05-07T19:30:24.917Z,58.18
2023-05-07T19:32:56.436Z,58.25
2023-05-07T19:35:27.692Z,58.22
2023-05-07T19:37:59.140Z,58.18
2023-05-07T19:40:30.516Z,58.15
2023-05-07T19:43:02.168Z,58.24
2023-05-07T19:45:33.886Z,58.05
2023-05-07T19:48:05.685Z,58.05
2023-05-07T19:50:37.552Z,57.96
2023-05-07T19:53:08.931Z,57.73
2023-05-07T19:55:40.865Z,57.82
2023-05-07T19:58:11.927Z,57.94
2023-05-07T20:00:43.530Z,57.83
2023-05-07T20:03:18.828Z,57.47
2023-05-07T20:05:51.900Z,57.41
2023-05-07T20:08:23.337Z,56.91
2023-05-07T20:10:55.162Z,56.87
2023-05-07T20:13:27.601Z,56.84
2023-05-07T20:16:02.245Z,56.80
2023-05-07T20:18:34.285Z,56.59
2023-05-07T20:21:05.775Z,56.62
2023-05-07T20:23:37.270Z,56.75
2023-05-07T20:26:08.608Z,56.49
2023-05-07T20:28:39.933Z,56.33
2023-05-07T20:31:11.841Z,56.21
2023-05-07T20:33:43.798Z,55.83
2023-05-07T20:36:15.918Z,56.16
2023-05-07T20:38:47.156Z,55.84
2023-05-07T20:41:18.641Z,56.00
2023-05-07T20:43:49.752Z,55.70
2023-05-07T20:46:23.016Z,55.18
2023-05-07T20:48:55.094Z,55.04
2023-05-07T20:51:27.395Z,55.09
2023-05-07T20:53:58.545Z,55.15
2023-05-07T20:56:30.190Z,55.38
2023-05-07T20:59:01.512Z,55.09
2023-05-07T21:01:32.932Z,55.15
2023-05-07T21:04:04.748Z,55.24
2023-05-07T21:06:36.058Z,55.08
2023-05-07T21:09:07.910Z,54.96
2023-05-07T21:11:39.546Z,54.77
2023-05-07T21:14:10.809Z,54.29
2023-05-07T21:16:43.244Z,54.21
2023-05-07T21:19:15.033Z,54.16
2023-05-07T21:21:46.288Z,54.42
2023-05-07T21:24:17.629Z,54.36
2023-05-07T21:26:48.951Z,54.31
2023-05-07T21:29:22.449Z,54.14
2023-05-07T21:31:53.798Z,54.14
2023-05-07T21:34:25.093Z,54.09
2023-05-07T21:36:56.565Z,54.20
2023-05-07T21:39:28.301Z,53.91
2023-05-07T21:41:59.751Z,54.07
2023-05-07T21:44:32.901Z,53.88
2023-05-07T21:47:03.990Z,53.71
2023-05-07T21:49:35.227Z,53.75
2023-05-07T21:52:06.726Z,53.51
2023-05-07T21:54:38.065Z,53.31
2023-05-07T21:57:09.689Z,53.48
2023-05-07T21:59:41.121Z,53.42
2023-05-07T22:02:12.572Z,53.43
2023-05-07T22:04:43.825Z,53.37
2023-05-07T22:07:15.240Z,53.35
2023-05-07T22:09:46.528Z,53.30
2023-05-07T22:12:18.011Z,53.25
2023-05-07T22:14:50.090Z,53.17
2023-05-07T22:17:22.572Z,53.27
2023-05-07T22:19:53.715Z,53.37
2023-05-07T22:22:25.112Z,53.07
2023-05-07T22:24:56.259Z,52.87
2023-05-07T22:27:27.989Z,52.79
2023-05-07T22:30:00.293Z,52.70
2023-05-07T22:32:31.922Z,52.32
2023-05-07T22:35:04.530Z,52.18
2023-05-07T22:37:35.726Z,51.74
2023-05-07T22:40:09.036Z,51.92
2023-05-07T22:42:40.467Z,52.10
2023-05-07T22:45:14.117Z,52.25
2023-05-07T22:47:45.376Z,52.29
2023-05-07T22:50:16.917Z,52.37
2023-05-07T22:52:48.471Z,52.32
2023-05-07T22:55:20.465Z,52.11
2023-05-07T22:57:51.359Z,52.08
2023-05-07T23:00:24.077Z,51.96
2023-05-07T23:02:55.680Z,51.86
2023-05-07T23:05:26.737Z,51.99
2023-05-07T23:07:58.419Z,52.02
2023-05-07T23:10:30.051Z,52.08
2023-05-07T23:13:01.345Z,52.14
2023-05-07T23:15:33.647Z,52.12
2023-05-07T23:18:05.491Z,52.21
2023-05-07T23:20:37.401Z,51.90
2023-05-07T23:23:09.067Z,51.85
2023-05-07T23:25:40.511Z,51.79
2023-05-07T23:28:11.667Z,51.79
2023-05-07T23:30:44.256Z,51.83
2023-05-07T23:33:15.789Z,51.86
2023-05-07T23:35:47.137Z,51.90
2023-05-07T23:38:18.208Z,51.99
2023-05-07T23:40:49.318Z,52.08
2023-05-07T23:43:20.673Z,52.16
2023-05-07T23:45:52.489Z,52.09
2023-05-07T23:48:24.176Z,52.00
2023-05-07T23:50:55.773Z,51.83
2023-05-07T23:53:27.163Z,51.91
2023-05-07T23:55:58.540Z,51.97
2023-05-07T23:58:29.900Z,51.89
